Aeroporto :
LOGIN :

Iscrizione | Disclaimer

   EN    FR    IT 

 










Sommario :    VFR   VFR Marginale   IFR   IFR Intensivo   IFR Molto Intensivo
Visibilità : 
Base nubi : 
>= 8 km
>= 3000ft
5 / 8 km
1000 / 3000 ft
1500m / 5 km
500 / 1000 ft
800 / 1500m
200 / 500 ft
< 800m
< 200 ft
Simboli :   Temporali  Nebbia  Neve Forte  Precipitazioni Forti  Vento > 20 kt
SIGMETs :   Varie  Temporali  Ghiacco  Turbolenza  Onda orograficha  Ceneri Vulcaniche






- Altitudine del aeroporto : 1742 ft
- Codice IATA : SOF


LBSF - Sofia Int.

ULTIMO METAR :
  • 210900Z 16004KT 090V220 CAVOK 29/16 Q1011 NOSIG

METARs OBSOLETI :
  • 210830Z VRB05KT CAVOK 29/17 Q1011 NOSIG
  • 210800Z 09007KT 060V170 CAVOK 28/16 Q1011 NOSIG
  • 210730Z 11007KT 070V140 CAVOK 27/16 Q1011 NOSIG
  • 210700Z 09005KT 040V140 CAVOK 27/17 Q1011 NOSIG
  • 210630Z VRB02KT CAVOK 25/17 Q1011 NOSIG
  • 210600Z 32003KT 260V070 CAVOK 24/19 Q1011 NOSIG
  • 210530Z 09006KT 9999 SCT076 23/19 Q1011 NOSIG
  • 210500Z 15003KT 100V180 CAVOK 21/18 Q1011 NOSIG
  • 210430Z VRB01KT CAVOK 20/19 Q1011 NOSIG

TAF TAF LBSF
Valido dal 21 a 06 ore il 22 a 06 ore UTC


210500Z 2106/2206 VRB04KT 9999 SCT070
TEMPO 2108/2112 VRB16G26KT 4000 TSRA SCT030CB BKN040
TEMPO 2114/2117 5000 SHRA SCT040CB BKN060



MetMap, La meteo Aeronautica in un colpo d'occhio ! - Copyright ORBIFLY Dicembre 2007 - Disclaimer

ORBIFLY MET'MAP TEAM :

Programmazione e sviluppo : Alexandra Zaïnal
Concezione : Baudouin d'Aumeries
Supporto tecnico e logistico : Manuel Goepfert
Aiuto : Marc-Olivier Méhu
Aiuto per la traduzione : Arnaldo La Scala




FONTI E CREDITI :

   NOAA